sensor_id;sensor_type;location;lat;lon;timestamp;P1;durP1;ratioP1;P2;durP2;ratioP2
70071;SDS011;57434;42.794;23.302;2023-07-09T00:00:54;8.27;;;4.60;;
70071;SDS011;57434;42.794;23.302;2023-07-09T00:01:56;11.57;;;4.05;;
70071;SDS011;57434;42.794;23.302;2023-07-09T00:02:58;10.20;;;4.75;;
70071;SDS011;57434;42.794;23.302;2023-07-09T00:03:59;9.02;;;4.47;;
70071;SDS011;57434;42.794;23.302;2023-07-09T00:05:01;9.18;;;4.05;;
70071;SDS011;57434;42.794;23.302;2023-07-09T00:06:03;13.93;;;4.53;;
70071;SDS011;57434;42.794;23.302;2023-07-09T00:07:05;8.27;;;4.33;;
70071;SDS011;57434;42.794;23.302;2023-07-09T00:08:12;7.53;;;4.07;;
70071;SDS011;57434;42.794;23.302;2023-07-09T00:09:21;10.27;;;4.35;;
70071;SDS011;57434;42.794;23.302;2023-07-09T00:10:23;8.18;;;4.20;;
70071;SDS011;57434;42.794;23.302;2023-07-09T00:11:24;8.02;;;3.80;;
70071;SDS011;57434;42.794;23.302;2023-07-09T00:12:26;8.63;;;4.20;;
70071;SDS011;57434;42.794;23.302;2023-07-09T00:13:27;9.07;;;4.20;;
70071;SDS011;57434;42.794;23.302;2023-07-09T00:14:29;11.10;;;5.25;;
70071;SDS011;57434;42.794;23.302;2023-07-09T00:15:30;8.60;;;4.40;;
70071;SDS011;57434;42.794;23.302;2023-07-09T00:16:32;7.45;;;3.85;;
70071;SDS011;57434;42.794;23.302;2023-07-09T00:17:34;9.47;;;4.50;;
70071;SDS011;57434;42.794;23.302;2023-07-09T00:18:35;8.15;;;4.20;;
70071;SDS011;57434;42.794;23.302;2023-07-09T00:19:37;8.65;;;3.80;;
70071;SDS011;57434;42.794;23.302;2023-07-09T00:20:39;8.65;;;3.78;;
70071;SDS011;57434;42.794;23.302;2023-07-09T00:21:40;8.88;;;3.92;;
70071;SDS011;57434;42.794;23.302;2023-07-09T00:22:42;8.98;;;4.10;;
70071;SDS011;57434;42.794;23.302;2023-07-09T00:23:43;9.65;;;4.78;;
70071;SDS011;57434;42.794;23.302;2023-07-09T00:24:49;7.90;;;4.13;;
70071;SDS011;57434;42.794;23.302;2023-07-09T00:25:51;11.38;;;4.07;;
70071;SDS011;57434;42.794;23.302;2023-07-09T00:26:53;11.40;;;3.88;;
70071;SDS011;57434;42.794;23.302;2023-07-09T00:27:55;10.83;;;4.13;;
70071;SDS011;57434;42.794;23.302;2023-07-09T00:28:56;8.43;;;3.92;;
70071;SDS011;57434;42.794;23.302;2023-07-09T00:29:58;8.07;;;4.20;;
70071;SDS011;57434;42.794;23.302;2023-07-09T00:31:00;8.27;;;3.75;;
70071;SDS011;57434;42.794;23.302;2023-07-09T00:32:01;8.13;;;3.60;;
70071;SDS011;57434;42.794;23.302;2023-07-09T00:33:03;9.23;;;3.97;;
70071;SDS011;57434;42.794;23.302;2023-07-09T00:34:04;12.10;;;4.15;;
70071;SDS011;57434;42.794;23.302;2023-07-09T00:35:06;7.38;;;3.90;;
70071;SDS011;57434;42.794;23.302;2023-07-09T00:36:13;7.70;;;4.07;;
70071;SDS011;57434;42.794;23.302;2023-07-09T00:37:15;8.02;;;3.90;;
70071;SDS011;57434;42.794;23.302;2023-07-09T00:38:18;7.80;;;3.73;;
70071;SDS011;57434;42.794;23.302;2023-07-09T00:39:21;7.88;;;3.80;;
70071;SDS011;57434;42.794;23.302;2023-07-09T00:40:23;9.52;;;4.28;;
70071;SDS011;57434;42.794;23.302;2023-07-09T00:41:24;9.18;;;4.13;;
70071;SDS011;57434;42.794;23.302;2023-07-09T00:42:26;7.35;;;4.10;;
70071;SDS011;57434;42.794;23.302;2023-07-09T00:43:32;8.10;;;3.95;;
70071;SDS011;57434;42.794;23.302;2023-07-09T00:44:34;7.55;;;3.70;;
70071;SDS011;57434;42.794;23.302;2023-07-09T00:45:36;8.95;;;3.50;;
70071;SDS011;57434;42.794;23.302;2023-07-09T00:49:00;7.63;;;3.60;;
70071;SDS011;57434;42.794;23.302;2023-07-09T00:50:09;7.47;;;3.55;;
70071;SDS011;57434;42.794;23.302;2023-07-09T00:51:13;8.88;;;4.20;;
70071;SDS011;57434;42.794;23.302;2023-07-09T00:52:27;8.48;;;3.42;;
70071;SDS011;57434;42.794;23.302;2023-07-09T00:53:30;8.05;;;3.90;;
70071;SDS011;57434;42.794;23.302;2023-07-09T00:54:34;6.65;;;3.53;;
70071;SDS011;57434;42.794;23.302;2023-07-09T00:55:37;9.00;;;3.97;;
70071;SDS011;57434;42.794;23.302;2023-07-09T00:56:40;7.75;;;3.22;;
70071;SDS011;57434;42.794;23.302;2023-07-09T00:57:43;7.05;;;3.30;;
70071;SDS011;57434;42.794;23.302;2023-07-09T00:58:46;12.35;;;3.67;;
70071;SDS011;57434;42.794;23.302;2023-07-09T00:59:52;8.03;;;4.33;;
70071;SDS011;57434;42.794;23.302;2023-07-09T01:00:55;8.48;;;3.72;;
70071;SDS011;57434;42.794;23.302;2023-07-09T01:01:57;9.50;;;3.80;;
70071;SDS011;57434;42.794;23.302;2023-07-09T01:02:59;8.43;;;3.53;;
70071;SDS011;57434;42.794;23.302;2023-07-09T01:04:02;6.03;;;2.75;;
70071;SDS011;57434;42.794;23.302;2023-07-09T01:05:04;6.82;;;3.15;;
70071;SDS011;57434;42.794;23.302;2023-07-09T01:06:06;8.95;;;3.92;;
70071;SDS011;57434;42.794;23.302;2023-07-09T01:07:07;7.05;;;3.55;;
70071;SDS011;57434;42.794;23.302;2023-07-09T01:08:09;7.40;;;3.67;;
70071;SDS011;57434;42.794;23.302;2023-07-09T01:09:12;7.07;;;3.50;;
70071;SDS011;57434;42.794;23.302;2023-07-09T01:10:14;11.20;;;3.30;;
70071;SDS011;57434;42.794;23.302;2023-07-09T01:11:20;10.95;;;3.60;;
70071;SDS011;57434;42.794;23.302;2023-07-09T01:12:22;6.53;;;3.30;;
70071;SDS011;57434;42.794;23.302;2023-07-09T01:13:23;9.50;;;3.92;;
70071;SDS011;57434;42.794;23.302;2023-07-09T01:14:25;6.85;;;3.55;;
70071;SDS011;57434;42.794;23.302;2023-07-09T01:15:27;9.02;;;3.25;;
70071;SDS011;57434;42.794;23.302;2023-07-09T01:16:31;9.13;;;3.75;;
70071;SDS011;57434;42.794;23.302;2023-07-09T01:17:33;7.00;;;3.20;;
70071;SDS011;57434;42.794;23.302;2023-07-09T01:18:35;8.20;;;3.80;;
70071;SDS011;57434;42.794;23.302;2023-07-09T01:19:38;7.35;;;3.28;;
70071;SDS011;57434;42.794;23.302;2023-07-09T01:20:40;6.40;;;3.10;;
70071;SDS011;57434;42.794;23.302;2023-07-09T01:21:43;13.60;;;3.65;;
70071;SDS011;57434;42.794;23.302;2023-07-09T01:22:44;7.30;;;3.25;;
70071;SDS011;57434;42.794;23.302;2023-07-09T01:23:47;8.68;;;3.47;;
70071;SDS011;57434;42.794;23.302;2023-07-09T01:24:50;8.27;;;3.90;;
70071;SDS011;57434;42.794;23.302;2023-07-09T01:25:52;9.27;;;3.42;;
70071;SDS011;57434;42.794;23.302;2023-07-09T01:26:54;6.75;;;3.60;;
70071;SDS011;57434;42.794;23.302;2023-07-09T01:27:56;9.27;;;3.85;;
70071;SDS011;57434;42.794;23.302;2023-07-09T01:28:57;7.55;;;3.60;;
70071;SDS011;57434;42.794;23.302;2023-07-09T01:30:00;9.57;;;2.97;;
70071;SDS011;57434;42.794;23.302;2023-07-09T01:32:31;8.60;;;3.50;;
70071;SDS011;57434;42.794;23.302;2023-07-09T01:33:33;10.85;;;3.45;;
70071;SDS011;57434;42.794;23.302;2023-07-09T01:34:34;7.40;;;3.40;;
70071;SDS011;57434;42.794;23.302;2023-07-09T01:35:37;7.13;;;3.22;;
70071;SDS011;57434;42.794;23.302;2023-07-09T01:36:39;6.30;;;3.10;;
70071;SDS011;57434;42.794;23.302;2023-07-09T01:37:41;8.05;;;3.72;;
70071;SDS011;57434;42.794;23.302;2023-07-09T01:38:43;9.40;;;3.33;;
70071;SDS011;57434;42.794;23.302;2023-07-09T01:39:45;8.82;;;3.40;;
70071;SDS011;57434;42.794;23.302;2023-07-09T01:40:46;7.45;;;3.03;;
70071;SDS011;57434;42.794;23.302;2023-07-09T01:41:48;7.57;;;3.57;;
70071;SDS011;57434;42.794;23.302;2023-07-09T01:42:50;6.85;;;3.30;;
70071;SDS011;57434;42.794;23.302;2023-07-09T01:43:52;6.32;;;3.20;;
70071;SDS011;57434;42.794;23.302;2023-07-09T01:44:54;7.22;;;3.40;;
70071;SDS011;57434;42.794;23.302;2023-07-09T01:45:56;8.93;;;4.20;;
70071;SDS011;57434;42.794;23.302;2023-07-09T01:46:57;8.30;;;3.50;;
70071;SDS011;57434;42.794;23.302;2023-07-09T01:47:59;6.55;;;2.88;;
70071;SDS011;57434;42.794;23.302;2023-07-09T01:49:01;6.18;;;3.15;;
70071;SDS011;57434;42.794;23.302;2023-07-09T01:50:03;7.03;;;3.30;;
70071;SDS011;57434;42.794;23.302;2023-07-09T01:51:05;6.50;;;3.47;;
70071;SDS011;57434;42.794;23.302;2023-07-09T01:52:07;7.97;;;3.63;;
70071;SDS011;57434;42.794;23.302;2023-07-09T01:53:12;7.55;;;3.78;;
70071;SDS011;57434;42.794;23.302;2023-07-09T01:54:14;9.82;;;3.63;;
70071;SDS011;57434;42.794;23.302;2023-07-09T01:55:16;7.78;;;3.80;;
70071;SDS011;57434;42.794;23.302;2023-07-09T01:56:17;8.15;;;3.47;;
70071;SDS011;57434;42.794;23.302;2023-07-09T01:57:21;7.68;;;3.47;;
70071;SDS011;57434;42.794;23.302;2023-07-09T01:58:22;7.07;;;3.55;;
70071;SDS011;57434;42.794;23.302;2023-07-09T01:59:24;6.70;;;3.42;;
70071;SDS011;57434;42.794;23.302;2023-07-09T02:03:11;8.50;;;3.20;;
70071;SDS011;57434;42.794;23.302;2023-07-09T02:04:12;7.35;;;3.33;;
70071;SDS011;57434;42.794;23.302;2023-07-09T02:05:18;7.72;;;3.50;;
70071;SDS011;57434;42.794;23.302;2023-07-09T02:06:20;8.60;;;3.30;;
70071;SDS011;57434;42.794;23.302;2023-07-09T02:07:23;13.38;;;3.53;;
70071;SDS011;57434;42.794;23.302;2023-07-09T02:08:25;7.57;;;3.83;;
70071;SDS011;57434;42.794;23.302;2023-07-09T02:09:26;7.82;;;3.78;;
70071;SDS011;57434;42.794;23.302;2023-07-09T02:10:28;7.82;;;3.25;;
70071;SDS011;57434;42.794;23.302;2023-07-09T02:11:29;7.78;;;3.60;;
70071;SDS011;57434;42.794;23.302;2023-07-09T02:12:31;6.57;;;3.08;;
70071;SDS011;57434;42.794;23.302;2023-07-09T02:13:32;8.30;;;3.70;;
70071;SDS011;57434;42.794;23.302;2023-07-09T02:14:34;6.50;;;3.47;;
70071;SDS011;57434;42.794;23.302;2023-07-09T02:15:36;8.88;;;3.80;;
70071;SDS011;57434;42.794;23.302;2023-07-09T02:16:37;8.77;;;3.53;;
70071;SDS011;57434;42.794;23.302;2023-07-09T02:17:39;8.05;;;3.42;;
70071;SDS011;57434;42.794;23.302;2023-07-09T02:18:41;8.00;;;3.40;;
70071;SDS011;57434;42.794;23.302;2023-07-09T02:19:43;7.05;;;3.65;;
70071;SDS011;57434;42.794;23.302;2023-07-09T02:20:47;7.28;;;3.35;;
70071;SDS011;57434;42.794;23.302;2023-07-09T02:21:49;6.93;;;3.42;;
70071;SDS011;57434;42.794;23.302;2023-07-09T02:22:51;6.70;;;3.38;;
70071;SDS011;57434;42.794;23.302;2023-07-09T02:23:52;8.90;;;3.77;;
70071;SDS011;57434;42.794;23.302;2023-07-09T02:24:54;7.78;;;3.92;;
70071;SDS011;57434;42.794;23.302;2023-07-09T02:25:56;9.38;;;3.60;;
70071;SDS011;57434;42.794;23.302;2023-07-09T02:26:58;8.05;;;3.63;;
70071;SDS011;57434;42.794;23.302;2023-07-09T02:28:00;10.15;;;4.18;;
70071;SDS011;57434;42.794;23.302;2023-07-09T02:29:01;7.80;;;3.33;;
70071;SDS011;57434;42.794;23.302;2023-07-09T02:30:04;7.55;;;4.43;;
70071;SDS011;57434;42.794;23.302;2023-07-09T02:31:06;6.93;;;3.47;;
70071;SDS011;57434;42.794;23.302;2023-07-09T02:32:16;7.10;;;3.90;;
70071;SDS011;57434;42.794;23.302;2023-07-09T02:33:18;9.95;;;3.72;;
70071;SDS011;57434;42.794;23.302;2023-07-09T02:34:20;7.30;;;3.77;;
70071;SDS011;57434;42.794;23.302;2023-07-09T02:35:22;7.15;;;3.60;;
70071;SDS011;57434;42.794;23.302;2023-07-09T02:36:24;7.63;;;3.25;;
70071;SDS011;57434;42.794;23.302;2023-07-09T02:37:26;6.90;;;3.15;;
70071;SDS011;57434;42.794;23.302;2023-07-09T02:38:27;8.32;;;3.47;;
70071;SDS011;57434;42.794;23.302;2023-07-09T02:39:29;6.20;;;3.47;;
70071;SDS011;57434;42.794;23.302;2023-07-09T02:40:31;8.07;;;3.60;;
70071;SDS011;57434;42.794;23.302;2023-07-09T02:41:32;6.93;;;3.25;;
70071;SDS011;57434;42.794;23.302;2023-07-09T02:42:34;6.60;;;3.10;;
70071;SDS011;57434;42.794;23.302;2023-07-09T02:43:36;6.55;;;3.35;;
70071;SDS011;57434;42.794;23.302;2023-07-09T02:44:37;7.23;;;3.40;;
70071;SDS011;57434;42.794;23.302;2023-07-09T02:45:39;7.50;;;3.78;;
70071;SDS011;57434;42.794;23.302;2023-07-09T03:07:48;6.57;;;3.60;;
70071;SDS011;57434;42.794;23.302;2023-07-09T03:08:50;7.22;;;3.88;;
70071;SDS011;57434;42.794;23.302;2023-07-09T03:09:52;7.13;;;3.40;;
70071;SDS011;57434;42.794;23.302;2023-07-09T03:10:54;8.00;;;3.28;;
70071;SDS011;57434;42.794;23.302;2023-07-09T03:11:56;8.88;;;2.90;;
70071;SDS011;57434;42.794;23.302;2023-07-09T03:12:57;7.63;;;3.70;;
70071;SDS011;57434;42.794;23.302;2023-07-09T03:13:59;7.00;;;3.10;;
70071;SDS011;57434;42.794;23.302;2023-07-09T03:15:01;7.32;;;3.25;;
70071;SDS011;57434;42.794;23.302;2023-07-09T03:16:03;6.43;;;3.35;;
70071;SDS011;57434;42.794;23.302;2023-07-09T03:17:05;6.53;;;3.33;;
70071;SDS011;57434;42.794;23.302;2023-07-09T03:18:07;7.40;;;3.45;;
70071;SDS011;57434;42.794;23.302;2023-07-09T03:19:08;7.13;;;3.10;;
70071;SDS011;57434;42.794;23.302;2023-07-09T03:20:10;8.25;;;3.60;;
70071;SDS011;57434;42.794;23.302;2023-07-09T03:21:12;8.18;;;3.65;;
70071;SDS011;57434;42.794;23.302;2023-07-09T03:22:14;6.47;;;3.38;;
70071;SDS011;57434;42.794;23.302;2023-07-09T03:23:15;8.10;;;3.10;;
70071;SDS011;57434;42.794;23.302;2023-07-09T03:24:17;6.40;;;3.17;;
70071;SDS011;57434;42.794;23.302;2023-07-09T03:25:19;7.15;;;2.97;;
70071;SDS011;57434;42.794;23.302;2023-07-09T03:26:21;7.82;;;3.38;;
70071;SDS011;57434;42.794;23.302;2023-07-09T03:27:22;7.13;;;3.40;;
70071;SDS011;57434;42.794;23.302;2023-07-09T03:28:24;8.65;;;3.28;;
70071;SDS011;57434;42.794;23.302;2023-07-09T03:29:25;6.95;;;3.17;;
70071;SDS011;57434;42.794;23.302;2023-07-09T03:30:27;7.13;;;3.47;;
70071;SDS011;57434;42.794;23.302;2023-07-09T03:31:29;7.72;;;3.17;;
70071;SDS011;57434;42.794;23.302;2023-07-09T03:32:31;6.80;;;3.22;;
70071;SDS011;57434;42.794;23.302;2023-07-09T03:33:32;7.10;;;2.97;;
70071;SDS011;57434;42.794;23.302;2023-07-09T03:34:34;6.88;;;3.20;;
70071;SDS011;57434;42.794;23.302;2023-07-09T03:35:36;6.90;;;2.97;;
70071;SDS011;57434;42.794;23.302;2023-07-09T03:36:37;6.82;;;3.22;;
70071;SDS011;57434;42.794;23.302;2023-07-09T03:37:39;7.27;;;3.40;;
70071;SDS011;57434;42.794;23.302;2023-07-09T03:38:41;6.60;;;3.15;;
70071;SDS011;57434;42.794;23.302;2023-07-09T03:39:42;6.20;;;3.05;;
70071;SDS011;57434;42.794;23.302;2023-07-09T03:40:49;9.02;;;3.60;;
70071;SDS011;57434;42.794;23.302;2023-07-09T03:41:51;6.60;;;3.17;;
70071;SDS011;57434;42.794;23.302;2023-07-09T03:42:53;6.32;;;2.92;;
70071;SDS011;57434;42.794;23.302;2023-07-09T03:43:55;6.00;;;3.05;;
70071;SDS011;57434;42.794;23.302;2023-07-09T03:44:56;6.32;;;3.10;;
70071;SDS011;57434;42.794;23.302;2023-07-09T03:45:58;7.82;;;3.13;;
70071;SDS011;57434;42.794;23.302;2023-07-09T03:46:59;5.80;;;3.20;;
70071;SDS011;57434;42.794;23.302;2023-07-09T03:48:01;6.03;;;3.20;;
70071;SDS011;57434;42.794;23.302;2023-07-09T03:49:04;6.45;;;3.28;;
70071;SDS011;57434;42.794;23.302;2023-07-09T03:50:09;6.10;;;3.35;;
70071;SDS011;57434;42.794;23.302;2023-07-09T03:51:11;9.90;;;3.30;;
70071;SDS011;57434;42.794;23.302;2023-07-09T03:52:12;8.80;;;3.22;;
70071;SDS011;57434;42.794;23.302;2023-07-09T03:53:14;6.57;;;3.13;;
70071;SDS011;57434;42.794;23.302;2023-07-09T03:54:16;6.97;;;3.10;;
70071;SDS011;57434;42.794;23.302;2023-07-09T03:55:18;7.50;;;3.90;;
70071;SDS011;57434;42.794;23.302;2023-07-09T03:56:19;6.68;;;3.40;;
70071;SDS011;57434;42.794;23.302;2023-07-09T03:57:21;7.20;;;3.53;;
70071;SDS011;57434;42.794;23.302;2023-07-09T03:58:23;7.10;;;3.57;;
70071;SDS011;57434;42.794;23.302;2023-07-09T03:59:25;7.97;;;3.90;;
70071;SDS011;57434;42.794;23.302;2023-07-09T04:00:27;7.28;;;3.38;;
70071;SDS011;57434;42.794;23.302;2023-07-09T04:01:28;7.70;;;3.55;;
70071;SDS011;57434;42.794;23.302;2023-07-09T04:02:30;7.75;;;3.85;;
70071;SDS011;57434;42.794;23.302;2023-07-09T04:03:32;7.05;;;3.75;;
70071;SDS011;57434;42.794;23.302;2023-07-09T04:04:34;6.88;;;3.72;;
70071;SDS011;57434;42.794;23.302;2023-07-09T04:05:35;7.40;;;3.70;;
70071;SDS011;57434;42.794;23.302;2023-07-09T04:06:37;10.85;;;3.88;;
70071;SDS011;57434;42.794;23.302;2023-07-09T04:07:39;7.65;;;3.92;;
70071;SDS011;57434;42.794;23.302;2023-07-09T04:08:40;7.03;;;3.50;;
70071;SDS011;57434;42.794;23.302;2023-07-09T04:09:42;6.55;;;3.55;;
70071;SDS011;57434;42.794;23.302;2023-07-09T04:10:44;9.40;;;3.60;;
70071;SDS011;57434;42.794;23.302;2023-07-09T04:11:45;11.00;;;4.30;;
70071;SDS011;57434;42.794;23.302;2023-07-09T04:12:47;8.38;;;4.05;;
70071;SDS011;57434;42.794;23.302;2023-07-09T04:13:48;7.72;;;3.65;;
70071;SDS011;57434;42.794;23.302;2023-07-09T04:14:50;9.13;;;3.83;;
70071;SDS011;57434;42.794;23.302;2023-07-09T04:15:52;7.90;;;4.00;;
70071;SDS011;57434;42.794;23.302;2023-07-09T04:16:54;7.53;;;4.57;;
70071;SDS011;57434;42.794;23.302;2023-07-09T04:17:55;10.40;;;4.38;;
70071;SDS011;57434;42.794;23.302;2023-07-09T04:18:57;8.53;;;4.23;;
70071;SDS011;57434;42.794;23.302;2023-07-09T04:19:59;8.13;;;4.03;;
70071;SDS011;57434;42.794;23.302;2023-07-09T04:21:00;11.40;;;3.78;;
70071;SDS011;57434;42.794;23.302;2023-07-09T04:22:02;7.20;;;4.30;;
70071;SDS011;57434;42.794;23.302;2023-07-09T04:23:05;8.63;;;4.55;;
70071;SDS011;57434;42.794;23.302;2023-07-09T04:24:07;9.32;;;4.50;;
70071;SDS011;57434;42.794;23.302;2023-07-09T04:25:09;8.52;;;4.35;;
70071;SDS011;57434;42.794;23.302;2023-07-09T04:26:14;7.35;;;4.10;;
70071;SDS011;57434;42.794;23.302;2023-07-09T04:27:15;8.88;;;4.35;;
70071;SDS011;57434;42.794;23.302;2023-07-09T04:28:17;8.85;;;4.28;;
70071;SDS011;57434;42.794;23.302;2023-07-09T04:29:19;8.57;;;4.77;;
70071;SDS011;57434;42.794;23.302;2023-07-09T04:30:21;8.75;;;4.50;;
70071;SDS011;57434;42.794;23.302;2023-07-09T04:31:22;8.27;;;4.68;;
70071;SDS011;57434;42.794;23.302;2023-07-09T04:32:24;9.10;;;4.30;;
70071;SDS011;57434;42.794;23.302;2023-07-09T04:33:26;8.73;;;4.13;;
70071;SDS011;57434;42.794;23.302;2023-07-09T04:34:28;8.90;;;4.50;;
70071;SDS011;57434;42.794;23.302;2023-07-09T04:35:29;8.68;;;4.13;;
70071;SDS011;57434;42.794;23.302;2023-07-09T04:36:31;8.57;;;4.45;;
70071;SDS011;57434;42.794;23.302;2023-07-09T04:37:32;9.00;;;4.20;;
70071;SDS011;57434;42.794;23.302;2023-07-09T04:38:34;8.43;;;4.53;;
70071;SDS011;57434;42.794;23.302;2023-07-09T04:39:36;8.43;;;4.20;;
70071;SDS011;57434;42.794;23.302;2023-07-09T04:40:37;9.60;;;4.38;;
70071;SDS011;57434;42.794;23.302;2023-07-09T04:41:39;10.10;;;4.20;;
70071;SDS011;57434;42.794;23.302;2023-07-09T04:42:40;7.45;;;4.43;;
70071;SDS011;57434;42.794;23.302;2023-07-09T04:43:42;7.30;;;4.05;;
70071;SDS011;57434;42.794;23.302;2023-07-09T04:44:44;10.30;;;4.45;;
70071;SDS011;57434;42.794;23.302;2023-07-09T04:45:46;9.38;;;4.53;;
70071;SDS011;57434;42.794;23.302;2023-07-09T04:46:48;7.88;;;4.53;;
70071;SDS011;57434;42.794;23.302;2023-07-09T04:47:50;8.63;;;4.25;;
70071;SDS011;57434;42.794;23.302;2023-07-09T04:48:51;7.45;;;4.32;;
70071;SDS011;57434;42.794;23.302;2023-07-09T04:49:53;8.00;;;4.60;;
70071;SDS011;57434;42.794;23.302;2023-07-09T04:50:55;7.13;;;4.35;;
70071;SDS011;57434;42.794;23.302;2023-07-09T04:51:56;8.48;;;4.22;;
70071;SDS011;57434;42.794;23.302;2023-07-09T04:52:58;7.75;;;4.28;;
70071;SDS011;57434;42.794;23.302;2023-07-09T04:54:00;8.38;;;4.50;;
70071;SDS011;57434;42.794;23.302;2023-07-09T04:55:02;8.90;;;4.45;;
70071;SDS011;57434;42.794;23.302;2023-07-09T04:56:03;9.05;;;4.50;;
70071;SDS011;57434;42.794;23.302;2023-07-09T04:57:05;8.30;;;4.68;;
70071;SDS011;57434;42.794;23.302;2023-07-09T04:58:07;9.15;;;4.60;;
70071;SDS011;57434;42.794;23.302;2023-07-09T04:59:09;8.80;;;4.70;;
70071;SDS011;57434;42.794;23.302;2023-07-09T05:00:11;10.20;;;4.83;;
70071;SDS011;57434;42.794;23.302;2023-07-09T05:01:13;10.73;;;5.10;;
70071;SDS011;57434;42.794;23.302;2023-07-09T05:02:15;8.90;;;4.95;;
70071;SDS011;57434;42.794;23.302;2023-07-09T05:03:17;8.15;;;4.65;;
70071;SDS011;57434;42.794;23.302;2023-07-09T05:04:19;8.00;;;4.15;;
70071;SDS011;57434;42.794;23.302;2023-07-09T05:05:22;8.15;;;4.30;;
70071;SDS011;57434;42.794;23.302;2023-07-09T05:06:24;7.32;;;4.07;;
70071;SDS011;57434;42.794;23.302;2023-07-09T05:07:26;7.93;;;4.60;;
70071;SDS011;57434;42.794;23.302;2023-07-09T05:08:27;7.90;;;4.50;;
70071;SDS011;57434;42.794;23.302;2023-07-09T05:09:29;8.90;;;4.30;;
70071;SDS011;57434;42.794;23.302;2023-07-09T05:10:30;7.60;;;4.60;;
70071;SDS011;57434;42.794;23.302;2023-07-09T05:11:33;7.03;;;3.92;;
70071;SDS011;57434;42.794;23.302;2023-07-09T05:12:35;9.30;;;4.60;;
70071;SDS011;57434;42.794;23.302;2023-07-09T05:13:37;10.00;;;4.38;;
70071;SDS011;57434;42.794;23.302;2023-07-09T05:14:38;10.52;;;4.40;;
70071;SDS011;57434;42.794;23.302;2023-07-09T05:15:40;10.05;;;4.78;;
70071;SDS011;57434;42.794;23.302;2023-07-09T05:16:43;7.78;;;4.43;;
70071;SDS011;57434;42.794;23.302;2023-07-09T05:17:45;7.78;;;4.25;;
70071;SDS011;57434;42.794;23.302;2023-07-09T05:18:46;10.15;;;4.90;;
70071;SDS011;57434;42.794;23.302;2023-07-09T05:19:48;8.50;;;4.22;;
70071;SDS011;57434;42.794;23.302;2023-07-09T05:20:49;10.17;;;4.47;;
70071;SDS011;57434;42.794;23.302;2023-07-09T05:21:51;10.10;;;4.70;;
70071;SDS011;57434;42.794;23.302;2023-07-09T05:22:53;8.32;;;4.38;;
70071;SDS011;57434;42.794;23.302;2023-07-09T05:23:54;10.27;;;5.20;;
70071;SDS011;57434;42.794;23.302;2023-07-09T05:24:56;7.35;;;4.70;;
70071;SDS011;57434;42.794;23.302;2023-07-09T05:25:58;8.25;;;4.97;;
70071;SDS011;57434;42.794;23.302;2023-07-09T05:27:01;7.53;;;4.38;;
70071;SDS011;57434;42.794;23.302;2023-07-09T05:28:03;8.05;;;4.63;;
70071;SDS011;57434;42.794;23.302;2023-07-09T05:29:04;8.52;;;4.25;;
70071;SDS011;57434;42.794;23.302;2023-07-09T05:30:06;8.05;;;4.60;;
70071;SDS011;57434;42.794;23.302;2023-07-09T05:31:08;9.77;;;5.27;;
70071;SDS011;57434;42.794;23.302;2023-07-09T05:32:10;9.93;;;4.75;;
70071;SDS011;57434;42.794;23.302;2023-07-09T05:33:12;8.13;;;5.13;;
70071;SDS011;57434;42.794;23.302;2023-07-09T05:34:13;8.65;;;4.78;;
70071;SDS011;57434;42.794;23.302;2023-07-09T05:35:15;8.20;;;4.53;;
70071;SDS011;57434;42.794;23.302;2023-07-09T05:36:17;8.88;;;4.50;;
70071;SDS011;57434;42.794;23.302;2023-07-09T05:37:18;7.53;;;4.40;;
70071;SDS011;57434;42.794;23.302;2023-07-09T05:38:20;10.05;;;4.88;;
70071;SDS011;57434;42.794;23.302;2023-07-09T05:39:22;9.35;;;5.00;;
70071;SDS011;57434;42.794;23.302;2023-07-09T05:40:23;8.48;;;5.20;;
70071;SDS011;57434;42.794;23.302;2023-07-09T05:41:25;8.20;;;5.20;;
70071;SDS011;57434;42.794;23.302;2023-07-09T05:42:26;11.25;;;4.70;;
70071;SDS011;57434;42.794;23.302;2023-07-09T05:43:28;9.40;;;5.47;;
70071;SDS011;57434;42.794;23.302;2023-07-09T05:44:30;9.02;;;4.88;;
70071;SDS011;57434;42.794;23.302;2023-07-09T05:45:31;8.52;;;4.95;;
70071;SDS011;57434;42.794;23.302;2023-07-09T05:46:34;8.27;;;5.13;;
70071;SDS011;57434;42.794;23.302;2023-07-09T05:47:35;12.25;;;5.28;;
70071;SDS011;57434;42.794;23.302;2023-07-09T05:48:37;9.55;;;5.15;;
70071;SDS011;57434;42.794;23.302;2023-07-09T05:49:39;8.10;;;4.72;;
70071;SDS011;57434;42.794;23.302;2023-07-09T05:50:40;6.97;;;4.28;;
70071;SDS011;57434;42.794;23.302;2023-07-09T05:51:43;11.03;;;5.50;;
70071;SDS011;57434;42.794;23.302;2023-07-09T05:52:44;8.80;;;4.78;;
70071;SDS011;57434;42.794;23.302;2023-07-09T05:53:46;9.23;;;5.03;;
70071;SDS011;57434;42.794;23.302;2023-07-09T05:54:49;10.70;;;5.32;;
70071;SDS011;57434;42.794;23.302;2023-07-09T05:55:56;8.32;;;4.78;;
70071;SDS011;57434;42.794;23.302;2023-07-09T05:56:58;11.68;;;5.30;;
70071;SDS011;57434;42.794;23.302;2023-07-09T05:58:00;12.20;;;5.20;;
70071;SDS011;57434;42.794;23.302;2023-07-09T05:59:01;8.70;;;4.65;;
70071;SDS011;57434;42.794;23.302;2023-07-09T06:00:03;7.40;;;4.45;;
70071;SDS011;57434;42.794;23.302;2023-07-09T06:01:05;9.13;;;4.30;;
70071;SDS011;57434;42.794;23.302;2023-07-09T06:02:10;10.43;;;4.40;;
70071;SDS011;57434;42.794;23.302;2023-07-09T06:03:12;6.95;;;3.83;;
70071;SDS011;57434;42.794;23.302;2023-07-09T06:04:14;10.57;;;4.47;;
70071;SDS011;57434;42.794;23.302;2023-07-09T06:05:16;10.20;;;4.80;;
70071;SDS011;57434;42.794;23.302;2023-07-09T06:06:18;8.13;;;3.95;;
70071;SDS011;57434;42.794;23.302;2023-07-09T06:07:19;13.00;;;4.07;;
70071;SDS011;57434;42.794;23.302;2023-07-09T06:08:22;8.02;;;4.28;;
70071;SDS011;57434;42.794;23.302;2023-07-09T06:09:24;8.40;;;4.07;;
70071;SDS011;57434;42.794;23.302;2023-07-09T06:10:26;7.90;;;3.70;;
70071;SDS011;57434;42.794;23.302;2023-07-09T06:11:28;8.98;;;3.50;;
70071;SDS011;57434;42.794;23.302;2023-07-09T06:12:30;12.93;;;4.17;;
70071;SDS011;57434;42.794;23.302;2023-07-09T06:13:31;10.45;;;3.63;;
70071;SDS011;57434;42.794;23.302;2023-07-09T06:14:33;11.25;;;4.20;;
70071;SDS011;57434;42.794;23.302;2023-07-09T06:15:35;9.07;;;4.72;;
70071;SDS011;57434;42.794;23.302;2023-07-09T06:16:36;7.95;;;4.40;;
70071;SDS011;57434;42.794;23.302;2023-07-09T06:17:38;7.88;;;3.78;;
70071;SDS011;57434;42.794;23.302;2023-07-09T06:18:40;12.55;;;4.03;;
70071;SDS011;57434;42.794;23.302;2023-07-09T06:19:41;8.25;;;3.70;;
70071;SDS011;57434;42.794;23.302;2023-07-09T06:20:47;8.52;;;3.60;;
70071;SDS011;57434;42.794;23.302;2023-07-09T06:21:48;8.50;;;3.75;;
70071;SDS011;57434;42.794;23.302;2023-07-09T06:22:50;7.77;;;3.97;;
70071;SDS011;57434;42.794;23.302;2023-07-09T06:23:52;7.30;;;3.80;;
70071;SDS011;57434;42.794;23.302;2023-07-09T06:24:54;7.38;;;3.85;;
70071;SDS011;57434;42.794;23.302;2023-07-09T06:25:55;7.72;;;3.65;;
70071;SDS011;57434;42.794;23.302;2023-07-09T06:26:57;7.25;;;3.35;;
70071;SDS011;57434;42.794;23.302;2023-07-09T06:27:59;11.85;;;3.85;;
70071;SDS011;57434;42.794;23.302;2023-07-09T06:29:00;9.73;;;3.72;;
70071;SDS011;57434;42.794;23.302;2023-07-09T06:30:02;9.63;;;3.60;;
70071;SDS011;57434;42.794;23.302;2023-07-09T06:31:04;7.28;;;3.38;;
70071;SDS011;57434;42.794;23.302;2023-07-09T06:32:06;9.75;;;3.25;;
70071;SDS011;57434;42.794;23.302;2023-07-09T06:33:08;7.73;;;4.20;;
70071;SDS011;57434;42.794;23.302;2023-07-09T06:34:09;7.68;;;3.60;;
70071;SDS011;57434;42.794;23.302;2023-07-09T06:35:11;7.68;;;3.35;;
70071;SDS011;57434;42.794;23.302;2023-07-09T06:36:13;7.10;;;3.85;;